Falmouth Bay — 3FVI5 — position and weather

sailwx.info

Track history (hours):
 
Tides and Currents Weather Stations Pressure Air Temp Water Temp Dewpoint Dewpoint Depression Visibility Wind Speed Wind Dir Waves Ship Positions

Falmouth Bay

Last reported at 2017-Nov-23 08:40 UTC. Time now 2017-Nov-24 14:57 UTC.
Position N 33°58' E 134°58'.

Length 197 m; draft 8.1 m.

Type: Cargo ship. MMSI: 352158000.

Date/timePositionNaut miles runAvg speedWind from/ knotsBaromVisibWave heightAir tempDewpointWater temp
2017-Nov-23 08:40N 33°58' E 134°58'413.5
2017-Nov-23 08:24N 34°01' E 134°58'513.2
2017-Nov-23 08:00N 34°06' E 134°58'613.0
2017-Nov-23 07:30N 34°13' E 134°58'713.7
2017-Nov-23 06:58N 34°20' E 134°60'613.4
2017-Nov-23 06:29N 34°26' E 135°02'613.6
2017-Nov-23 06:01N 34°32' E 135°05'4 7.7
2017-Nov-23 05:30N 34°36' E 135°03'611.7
2017-Nov-23 05:00N 34°36' E 134°56'713.1
2017-Nov-23 04:27N 34°33' E 134°48'  
2017-Nov-17 19:42N 34°33' E 134°47'313.7
2017-Nov-17 19:29N 34°34' E 134°50'613.3
2017-Nov-17 19:00N 34°37' E 134°57'5 9.8
2017-Nov-17 18:30N 34°36' E 135°03'4 9.0
2017-Nov-17 18:00N 34°34' E 135°08'3 6.0
2017-Nov-17 17:30N 34°31' E 135°08'510.6
2017-Nov-17 17:00N 34°26' E 135°05'611.7
2017-Nov-17 16:30N 34°21' E 135°02'510.6
2017-Nov-17 16:00N 34°16' E 134°59'510.8
2017-Nov-17 15:31N 34°11' E 134°60'4 8.9
2017-Nov-17 15:00N 34°06' E 134°60'510.0
2017-Nov-17 14:30N 34°01' E 134°59'4 8.3
2017-Nov-17 14:00N 33°57' E 134°59'  
2017-Nov-14 11:04N 33°57' E 134°56'114.0
2017-Nov-14 11:00N 33°58' E 134°57'713.6
2017-Nov-14 10:30N 34°04' E 134°58'713.3
2017-Nov-14 10:00N 34°11' E 134°58'611.4
2017-Nov-14 09:28N 34°17' E 134°59'613.5
2017-Nov-14 09:00N 34°23' E 134°60'713.6
2017-Nov-14 08:30N 34°30' E 135°03'5 9.9
2017-Nov-14 08:01N 34°34' E 135°05'5 9.6
2017-Nov-14 07:28N 34°37' E 134°60'613.0
2017-Nov-14 07:00N 34°35' E 134°53'  
Track history (hours):
 
Tides and Currents Weather Stations Pressure Air Temp Water Temp Dewpoint Dewpoint Depression Visibility Wind Speed Wind Dir Waves Ship Positions

Falmouth Bay

Last reported at 2017-Nov-23 08:40 UTC. Time now 2017-Nov-24 14:57 UTC.
Position N 33°58' E 134°58'.

Length 197 m; draft 8.1 m.

Type: Cargo ship. MMSI: 352158000.

Date/timePositionNaut miles runAvg speedWind from/ knotsBaromVisibWave heightAir tempDewpointWater temp
2017-Nov-23 08:40N 33°58' E 134°58'413.5
2017-Nov-23 08:24N 34°01' E 134°58'513.2
2017-Nov-23 08:00N 34°06' E 134°58'613.0
2017-Nov-23 07:30N 34°13' E 134°58'713.7
2017-Nov-23 06:58N 34°20' E 134°60'613.4
2017-Nov-23 06:29N 34°26' E 135°02'613.6
2017-Nov-23 06:01N 34°32' E 135°05'4 7.7
2017-Nov-23 05:30N 34°36' E 135°03'611.7
2017-Nov-23 05:00N 34°36' E 134°56'713.1
2017-Nov-23 04:27N 34°33' E 134°48'  
2017-Nov-17 19:42N 34°33' E 134°47'313.7
2017-Nov-17 19:29N 34°34' E 134°50'613.3
2017-Nov-17 19:00N 34°37' E 134°57'5 9.8
2017-Nov-17 18:30N 34°36' E 135°03'4 9.0
2017-Nov-17 18:00N 34°34' E 135°08'3 6.0
2017-Nov-17 17:30N 34°31' E 135°08'510.6
2017-Nov-17 17:00N 34°26' E 135°05'611.7
2017-Nov-17 16:30N 34°21' E 135°02'510.6
2017-Nov-17 16:00N 34°16' E 134°59'510.8
2017-Nov-17 15:31N 34°11' E 134°60'4 8.9
2017-Nov-17 15:00N 34°06' E 134°60'510.0
2017-Nov-17 14:30N 34°01' E 134°59'4 8.3
2017-Nov-17 14:00N 33°57' E 134°59'  
2017-Nov-14 11:04N 33°57' E 134°56'114.0
2017-Nov-14 11:00N 33°58' E 134°57'713.6
2017-Nov-14 10:30N 34°04' E 134°58'713.3
2017-Nov-14 10:00N 34°11' E 134°58'611.4
2017-Nov-14 09:28N 34°17' E 134°59'613.5
2017-Nov-14 09:00N 34°23' E 134°60'713.6
2017-Nov-14 08:30N 34°30' E 135°03'5 9.9
2017-Nov-14 08:01N 34°34' E 135°05'5 9.6
2017-Nov-14 07:28N 34°37' E 134°60'613.0
2017-Nov-14 07:00N 34°35' E 134°53'  

Dump ship's entire track history